Ponto Lake, Minnesota
Current Conditions -  °F | °C
As of 4:14 AM on Friday 19 Dec 2014 (Local Time) from KPWC Reporting Station
Light Snow Light Snow  
Wind Chill: 11°   Ceiling: 4600
Heat Index: 19°   Visibility: 5mi
Dew Point: 16°   Wind: 6mph
Humidity: 86%   Direction: 150°SSE
Pressure: 30.21"   Gusts: NA
Location:  46.6535°N, 94.5389°W
Report Text: KPWC 191014Z AUTO 15005KT 5SM -SN SCT029 OVC046 M07/M09 A3021 RMK AO2
Loading
Personal Weather Stations






























Interactive Weather Map New forecast layout! Learn more

10-Day Weather Forecast

Advertisements
Track Severe Weather on mobile